Time,TemperatureF,DewpointF,PressureIn,WindDirection,WindDirectionDegrees,WindSpeedMPH,WindSpeedGustMPH,Humidity,HourlyPrecipIn,Conditions,Clouds,dailyrainin,SolarRadiationWatts/m^2,SoftwareType,DateUTC
2013-01-07 00:00:00,49.9,46.5,30.20,South,181,10.0,10.0,88,0.00,,,0.00,0,Wunderground v.1.15,2013-01-07 00:00:00,
2013-01-07 00:30:00,49.6,45.9,30.19,South,183,10.0,10.0,87,0.00,,,0.00,0,Wunderground v.1.15,2013-01-07 00:30:00,
2013-01-07 01:30:00,49.5,45.8,30.17,South,175,9.0,11.0,87,0.00,,,0.00,0,Wunderground v.1.15,2013-01-07 01:30:00,
2013-01-07 02:00:00,49.4,45.4,30.17,SSE,153,9.0,9.0,86,0.00,,,0.01,0,Wunderground v.1.15,2013-01-07 02:00:00,
2013-01-07 02:30:00,49.5,45.8,30.17,South,185,10.0,10.0,87,0.00,,,0.02,0,Wunderground v.1.15,2013-01-07 02:30:00,
2013-01-07 03:00:00,49.5,45.8,30.17,South,186,9.0,9.0,87,0.00,,,0.02,0,Wunderground v.1.15,2013-01-07 03:00:00,
2013-01-07 03:30:00,49.5,45.8,30.16,SSE,165,7.0,7.0,87,0.00,,,0.02,0,Wunderground v.1.15,2013-01-07 03:30:00,
2013-01-07 06:00:00,47.8,43.5,30.10,ESE,123,9.0,11.0,85,0.00,,,0.06,0,Wunderground v.1.15,2013-01-07 06:00:00,
2013-01-07 06:30:00,47.9,43.6,30.09,SE,126,10.0,13.0,85,0.06,,,0.07,0,Wunderground v.1.15,2013-01-07 06:30:00,
2013-01-07 07:00:00,48.1,43.5,30.08,SE,144,9.0,9.0,84,0.00,,,0.08,0,Wunderground v.1.15,2013-01-07 07:00:00,
2013-01-07 07:30:00,48.4,43.8,30.08,SSE,162,8.0,8.0,84,0.00,,,0.08,0,Wunderground v.1.15,2013-01-07 07:30:00,
2013-01-07 08:00:00,48.3,43.4,30.08,SSE,163,7.0,7.0,83,0.00,,,0.09,0,Wunderground v.1.15,2013-01-07 08:00:00,
2013-01-07 08:30:00,49.2,43.9,30.07,South,176,11.0,12.0,82,0.04,,,0.10,0,Wunderground v.1.15,2013-01-07 08:30:00,
2013-01-07 09:00:00,49.8,44.5,30.06,South,189,12.0,12.0,82,0.00,,,0.10,0,Wunderground v.1.15,2013-01-07 09:00:00,
2013-01-07 09:30:00,50.0,44.7,30.06,South,174,13.0,17.0,82,0.06,,,0.13,5,Wunderground v.1.15,2013-01-07 09:30:00,
2013-01-07 10:00:00,50.4,45.1,30.06,South,181,15.0,15.0,82,0.07,,,0.15,7,Wunderground v.1.15,2013-01-07 10:00:00,
2013-01-07 10:30:00,50.5,45.5,30.06,SSW,203,15.0,18.0,83,0.10,,,0.18,7,Wunderground v.1.15,2013-01-07 10:30:00,
2013-01-07 11:00:00,50.8,45.5,30.05,SSW,196,16.0,24.0,82,0.00,,,0.20,39,Wunderground v.1.15,2013-01-07 11:00:00,
2013-01-07 11:30:00,51.0,45.7,30.05,South,184,15.0,15.0,82,0.04,,,0.21,32,Wunderground v.1.15,2013-01-07 11:30:00,
2013-01-07 12:00:00,51.2,46.2,30.04,South,178,15.0,16.0,83,0.08,,,0.24,32,Wunderground v.1.15,2013-01-07 12:00:00,
2013-01-07 12:30:00,51.2,46.2,30.04,SSW,202,16.0,16.0,83,0.04,,,0.26,18,Wunderground v.1.15,2013-01-07 12:30:00,
2013-01-07 13:00:00,51.4,46.4,30.04,SSW,207,17.0,17.0,83,0.00,,,0.26,39,Wunderground v.1.15,2013-01-07 13:00:00,
2013-01-07 13:30:00,51.5,46.5,30.03,SSW,212,17.0,17.0,83,0.00,,,0.26,44,Wunderground v.1.15,2013-01-07 13:30:00,
2013-01-07 14:00:00,51.6,46.6,30.03,SSW,202,18.0,18.0,83,0.00,,,0.26,51,Wunderground v.1.15,2013-01-07 14:00:00,
2013-01-07 14:30:00,51.3,46.0,30.02,South,184,18.0,18.0,82,0.00,,,0.26,35,Wunderground v.1.15,2013-01-07 14:30:00,
2013-01-07 15:30:00,51.5,46.2,30.02,SSW,199,17.0,18.0,82,0.00,,,0.26,7,Wunderground v.1.15,2013-01-07 15:30:00,
2013-01-07 16:00:00,51.5,46.5,30.02,South,183,17.0,17.0,83,0.00,,,0.26,0,Wunderground v.1.15,2013-01-07 16:00:00,
2013-01-07 16:30:00,51.5,46.5,30.02,SSW,198,15.0,15.0,83,0.00,,,0.26,0,Wunderground v.1.15,2013-01-07 16:30:00,
2013-01-07 17:00:00,51.6,46.6,30.02,SW,214,15.0,15.0,83,0.00,,,0.27,0,Wunderground v.1.15,2013-01-07 17:00:00,
2013-01-07 17:30:00,51.6,46.6,30.02,SSW,195,14.0,14.0,83,0.00,,,0.27,0,Wunderground v.1.15,2013-01-07 17:30:00,
2013-01-07 18:00:00,51.7,46.7,30.02,SSW,198,15.0,15.0,83,0.00,,,0.28,0,Wunderground v.1.15,2013-01-07 18:00:00,
2013-01-07 18:30:00,51.7,46.7,30.02,South,184,14.0,18.0,83,0.00,,,0.28,0,Wunderground v.1.15,2013-01-07 18:30:00,
2013-01-07 19:00:00,51.8,46.8,30.02,SSW,207,12.0,15.0,83,0.00,,,0.28,0,Wunderground v.1.15,2013-01-07 19:00:00,
2013-01-07 19:30:00,51.9,47.2,30.01,SSW,205,14.0,15.0,84,0.00,,,0.28,0,Wunderground v.1.15,2013-01-07 19:30:00,
2013-01-07 20:00:00,51.9,47.2,30.02,South,188,13.0,24.0,84,0.00,,,0.28,0,Wunderground v.1.15,2013-01-07 20:00:00,
2013-01-07 20:30:00,52.1,47.4,30.02,SSW,192,14.0,14.0,84,0.00,,,0.28,0,Wunderground v.1.15,2013-01-07 20:30:00,
2013-01-07 21:00:00,52.2,47.8,30.01,SSW,204,18.0,24.0,85,0.00,,,0.28,0,Wunderground v.1.15,2013-01-07 21:00:00,
2013-01-07 21:30:00,52.1,47.7,30.00,South,170,19.0,19.0,85,0.00,,,0.28,0,Wunderground v.1.15,2013-01-07 21:30:00,
2013-01-07 22:00:00,52.0,47.3,30.00,South,189,19.0,25.0,84,0.00,,,0.28,0,Wunderground v.1.15,2013-01-07 22:00:00,
2013-01-07 22:30:00,51.9,47.2,30.01,South,185,19.0,19.0,84,0.00,,,0.28,0,Wunderground v.1.15,2013-01-07 22:30:00,
2013-01-07 23:00:00,51.9,47.2,30.01,SSW,197,16.0,18.0,84,0.00,,,0.28,0,Wunderground v.1.15,2013-01-07 23:00:00,
2013-01-07 23:30:00,52.0,47.3,30.01,South,188,17.0,18.0,84,0.00,,,0.28,0,Wunderground v.1.15,2013-01-07 23:30:00,